sensor_id;sensor_type;location;lat;lon;timestamp;temperature;humidity
67161;DHT22;54088;52.238;21.104;2022-11-20T00:00:54;-3.30;86.10
67161;DHT22;54088;52.238;21.104;2022-11-20T00:03:20;-3.30;86.30
67161;DHT22;54088;52.238;21.104;2022-11-20T00:05:45;-3.40;86.30
67161;DHT22;54088;52.238;21.104;2022-11-20T00:08:11;-3.40;86.30
67161;DHT22;54088;52.238;21.104;2022-11-20T00:10:38;-3.40;86.50
67161;DHT22;54088;52.238;21.104;2022-11-20T00:13:04;-3.50;86.70
67161;DHT22;54088;52.238;21.104;2022-11-20T00:15:30;-3.50;86.70
67161;DHT22;54088;52.238;21.104;2022-11-20T00:17:56;-3.50;86.80
67161;DHT22;54088;52.238;21.104;2022-11-20T00:20:22;-3.60;87.00
67161;DHT22;54088;52.238;21.104;2022-11-20T00:22:47;-3.60;87.10
67161;DHT22;54088;52.238;21.104;2022-11-20T00:25:13;-3.60;87.20
67161;DHT22;54088;52.238;21.104;2022-11-20T00:27:39;-3.60;87.20
67161;DHT22;54088;52.238;21.104;2022-11-20T00:30:05;-3.70;87.40
67161;DHT22;54088;52.238;21.104;2022-11-20T00:32:32;-3.70;87.50
67161;DHT22;54088;52.238;21.104;2022-11-20T00:34:58;-3.80;87.60
67161;DHT22;54088;52.238;21.104;2022-11-20T00:37:23;-3.80;87.70
67161;DHT22;54088;52.238;21.104;2022-11-20T00:39:49;-3.80;87.90
67161;DHT22;54088;52.238;21.104;2022-11-20T00:42:14;-3.80;88.00
67161;DHT22;54088;52.238;21.104;2022-11-20T00:44:40;-3.80;88.10
67161;DHT22;54088;52.238;21.104;2022-11-20T00:47:06;-3.80;87.90
67161;DHT22;54088;52.238;21.104;2022-11-20T00:49:31;-3.70;88.10
67161;DHT22;54088;52.238;21.104;2022-11-20T00:51:57;-3.70;88.00
67161;DHT22;54088;52.238;21.104;2022-11-20T00:54:23;-3.60;87.90
67161;DHT22;54088;52.238;21.104;2022-11-20T00:56:48;-3.50;87.80
67161;DHT22;54088;52.238;21.104;2022-11-20T00:59:14;-3.50;87.80
67161;DHT22;54088;52.238;21.104;2022-11-20T01:01:40;-3.40;87.70
67161;DHT22;54088;52.238;21.104;2022-11-20T01:04:05;-3.40;87.60
67161;DHT22;54088;52.238;21.104;2022-11-20T01:06:36;-3.30;87.40
67161;DHT22;54088;52.238;21.104;2022-11-20T01:09:12;-3.30;87.20
67161;DHT22;54088;52.238;21.104;2022-11-20T01:11:41;-3.30;87.00
67161;DHT22;54088;52.238;21.104;2022-11-20T01:14:10;-3.30;87.00
67161;DHT22;54088;52.238;21.104;2022-11-20T01:16:39;-3.30;87.00
67161;DHT22;54088;52.238;21.104;2022-11-20T01:19:07;-3.30;87.10
67161;DHT22;54088;52.238;21.104;2022-11-20T01:21:36;-3.30;87.10
67161;DHT22;54088;52.238;21.104;2022-11-20T01:24:04;-3.30;87.10
67161;DHT22;54088;52.238;21.104;2022-11-20T01:26:32;-3.40;87.20
67161;DHT22;54088;52.238;21.104;2022-11-20T01:28:58;-3.40;87.20
67161;DHT22;54088;52.238;21.104;2022-11-20T01:31:33;-3.40;87.30
67161;DHT22;54088;52.238;21.104;2022-11-20T01:34:01;-3.50;87.60
67161;DHT22;54088;52.238;21.104;2022-11-20T01:36:28;-3.50;87.80
67161;DHT22;54088;52.238;21.104;2022-11-20T01:38:56;-3.60;87.80
67161;DHT22;54088;52.238;21.104;2022-11-20T01:41:23;-3.60;88.00
67161;DHT22;54088;52.238;21.104;2022-11-20T01:44:10;-3.60;88.10
67161;DHT22;54088;52.238;21.104;2022-11-20T01:46:38;-3.60;88.20
67161;DHT22;54088;52.238;21.104;2022-11-20T01:49:19;-3.70;88.40
67161;DHT22;54088;52.238;21.104;2022-11-20T01:51:58;-3.70;88.60
67161;DHT22;54088;52.238;21.104;2022-11-20T01:54:28;-3.70;88.80
67161;DHT22;54088;52.238;21.104;2022-11-20T01:56:57;-3.60;88.80
67161;DHT22;54088;52.238;21.104;2022-11-20T01:59:25;-3.60;88.50
67161;DHT22;54088;52.238;21.104;2022-11-20T02:01:52;-3.50;88.60
67161;DHT22;54088;52.238;21.104;2022-11-20T02:04:19;-3.50;88.50
67161;DHT22;54088;52.238;21.104;2022-11-20T02:07:02;-3.50;88.20
67161;DHT22;54088;52.238;21.104;2022-11-20T02:09:30;-3.50;88.20
67161;DHT22;54088;52.238;21.104;2022-11-20T02:11:56;-3.50;88.30
67161;DHT22;54088;52.238;21.104;2022-11-20T02:14:23;-3.50;88.50
67161;DHT22;54088;52.238;21.104;2022-11-20T02:16:50;-3.40;88.60
67161;DHT22;54088;52.238;21.104;2022-11-20T02:19:30;-3.30;88.30
67161;DHT22;54088;52.238;21.104;2022-11-20T02:24:25;-3.30;88.00
67161;DHT22;54088;52.238;21.104;2022-11-20T02:27:03;-3.30;87.90
67161;DHT22;54088;52.238;21.104;2022-11-20T02:29:38;-3.30;88.10
67161;DHT22;54088;52.238;21.104;2022-11-20T02:32:05;-3.30;88.10
67161;DHT22;54088;52.238;21.104;2022-11-20T02:34:31;-3.30;88.00
67161;DHT22;54088;52.238;21.104;2022-11-20T02:36:57;-3.30;88.10
67161;DHT22;54088;52.238;21.104;2022-11-20T02:39:26;-3.30;88.20
67161;DHT22;54088;52.238;21.104;2022-11-20T02:41:56;-3.30;88.30
67161;DHT22;54088;52.238;21.104;2022-11-20T02:44:22;-3.30;88.30
67161;DHT22;54088;52.238;21.104;2022-11-20T02:46:47;-3.30;88.40
67161;DHT22;54088;52.238;21.104;2022-11-20T02:49:13;-3.30;88.40
67161;DHT22;54088;52.238;21.104;2022-11-20T02:51:39;-3.30;88.40
67161;DHT22;54088;52.238;21.104;2022-11-20T02:54:04;-3.30;88.30
67161;DHT22;54088;52.238;21.104;2022-11-20T02:56:31;-3.30;88.60
67161;DHT22;54088;52.238;21.104;2022-11-20T02:58:56;-3.30;88.70
67161;DHT22;54088;52.238;21.104;2022-11-20T03:01:22;-3.30;88.80
67161;DHT22;54088;52.238;21.104;2022-11-20T03:03:48;-3.40;89.00
67161;DHT22;54088;52.238;21.104;2022-11-20T03:06:15;-3.40;89.10
67161;DHT22;54088;52.238;21.104;2022-11-20T03:08:42;-3.40;89.40
67161;DHT22;54088;52.238;21.104;2022-11-20T03:11:08;-3.50;89.50
67161;DHT22;54088;52.238;21.104;2022-11-20T03:13:35;-3.50;89.80
67161;DHT22;54088;52.238;21.104;2022-11-20T03:16:12;-3.50;90.00
67161;DHT22;54088;52.238;21.104;2022-11-20T03:18:39;-3.50;90.10
67161;DHT22;54088;52.238;21.104;2022-11-20T03:21:05;-3.50;90.10
67161;DHT22;54088;52.238;21.104;2022-11-20T03:23:31;-3.50;90.10
67161;DHT22;54088;52.238;21.104;2022-11-20T03:26:18;-3.50;90.20
67161;DHT22;54088;52.238;21.104;2022-11-20T03:29:10;-3.60;90.30
67161;DHT22;54088;52.238;21.104;2022-11-20T03:31:38;-3.60;90.30
67161;DHT22;54088;52.238;21.104;2022-11-20T03:34:05;-3.60;90.30
67161;DHT22;54088;52.238;21.104;2022-11-20T03:36:32;-3.60;90.40
67161;DHT22;54088;52.238;21.104;2022-11-20T03:38:58;-3.60;90.50
67161;DHT22;54088;52.238;21.104;2022-11-20T03:41:28;-3.60;90.60
67161;DHT22;54088;52.238;21.104;2022-11-20T03:43:59;-3.60;90.60
67161;DHT22;54088;52.238;21.104;2022-11-20T03:46:27;-3.60;90.70
67161;DHT22;54088;52.238;21.104;2022-11-20T03:48:53;-3.70;90.80
67161;DHT22;54088;52.238;21.104;2022-11-20T03:51:24;-3.70;90.90
67161;DHT22;54088;52.238;21.104;2022-11-20T03:53:52;-3.70;91.00
67161;DHT22;54088;52.238;21.104;2022-11-20T03:56:21;-3.70;91.00
67161;DHT22;54088;52.238;21.104;2022-11-20T03:58:47;-3.80;91.10
67161;DHT22;54088;52.238;21.104;2022-11-20T04:01:16;-3.80;91.20
67161;DHT22;54088;52.238;21.104;2022-11-20T04:03:42;-3.80;91.20
67161;DHT22;54088;52.238;21.104;2022-11-20T04:06:14;-3.80;91.30
67161;DHT22;54088;52.238;21.104;2022-11-20T04:08:41;-3.80;91.30
67161;DHT22;54088;52.238;21.104;2022-11-20T04:11:15;-3.80;91.40
67161;DHT22;54088;52.238;21.104;2022-11-20T04:13:42;-3.80;91.40
67161;DHT22;54088;52.238;21.104;2022-11-20T04:16:10;-3.90;91.40
67161;DHT22;54088;52.238;21.104;2022-11-20T04:18:36;-3.90;91.50
67161;DHT22;54088;52.238;21.104;2022-11-20T04:21:03;-3.90;91.40
67161;DHT22;54088;52.238;21.104;2022-11-20T04:23:29;-3.90;91.40
67161;DHT22;54088;52.238;21.104;2022-11-20T04:25:54;-3.90;91.30
67161;DHT22;54088;52.238;21.104;2022-11-20T04:28:20;-4.00;91.30
67161;DHT22;54088;52.238;21.104;2022-11-20T04:30:46;-4.00;91.40
67161;DHT22;54088;52.238;21.104;2022-11-20T04:33:12;-4.00;91.30
67161;DHT22;54088;52.238;21.104;2022-11-20T04:35:38;-4.00;91.30
67161;DHT22;54088;52.238;21.104;2022-11-20T04:38:04;-4.10;91.20
67161;DHT22;54088;52.238;21.104;2022-11-20T04:40:30;-4.10;91.20
67161;DHT22;54088;52.238;21.104;2022-11-20T04:42:56;-4.10;91.10
67161;DHT22;54088;52.238;21.104;2022-11-20T04:45:22;-4.10;91.10
67161;DHT22;54088;52.238;21.104;2022-11-20T04:47:48;-4.10;91.10
67161;DHT22;54088;52.238;21.104;2022-11-20T04:50:14;-4.10;91.00
67161;DHT22;54088;52.238;21.104;2022-11-20T04:52:40;-4.10;91.00
67161;DHT22;54088;52.238;21.104;2022-11-20T04:55:06;-4.10;90.90
67161;DHT22;54088;52.238;21.104;2022-11-20T04:57:32;-4.20;90.90
67161;DHT22;54088;52.238;21.104;2022-11-20T04:59:57;-4.20;90.90
67161;DHT22;54088;52.238;21.104;2022-11-20T05:02:23;-4.20;91.00
67161;DHT22;54088;52.238;21.104;2022-11-20T05:04:49;-4.20;91.00
67161;DHT22;54088;52.238;21.104;2022-11-20T05:07:14;-4.30;91.00
67161;DHT22;54088;52.238;21.104;2022-11-20T05:09:40;-4.30;91.00
67161;DHT22;54088;52.238;21.104;2022-11-20T05:12:08;-4.20;91.10
67161;DHT22;54088;52.238;21.104;2022-11-20T05:14:33;-4.30;90.90
67161;DHT22;54088;52.238;21.104;2022-11-20T05:16:59;-4.20;91.00
67161;DHT22;54088;52.238;21.104;2022-11-20T05:19:25;-4.30;91.00
67161;DHT22;54088;52.238;21.104;2022-11-20T05:21:50;-4.20;90.90
67161;DHT22;54088;52.238;21.104;2022-11-20T05:24:16;-4.20;90.90
67161;DHT22;54088;52.238;21.104;2022-11-20T05:26:42;-4.20;90.90
67161;DHT22;54088;52.238;21.104;2022-11-20T05:29:12;-4.20;90.80
67161;DHT22;54088;52.238;21.104;2022-11-20T05:31:38;-4.20;90.80
67161;DHT22;54088;52.238;21.104;2022-11-20T05:34:05;-4.20;90.70
67161;DHT22;54088;52.238;21.104;2022-11-20T05:36:30;-4.20;90.60
67161;DHT22;54088;52.238;21.104;2022-11-20T05:38:56;-4.20;90.70
67161;DHT22;54088;52.238;21.104;2022-11-20T05:41:22;-4.20;90.80
67161;DHT22;54088;52.238;21.104;2022-11-20T05:43:48;-4.20;90.80
67161;DHT22;54088;52.238;21.104;2022-11-20T05:46:17;-4.20;90.80
67161;DHT22;54088;52.238;21.104;2022-11-20T05:48:43;-4.20;90.80
67161;DHT22;54088;52.238;21.104;2022-11-20T05:51:13;-4.30;90.90
67161;DHT22;54088;52.238;21.104;2022-11-20T05:53:39;-4.20;90.90
67161;DHT22;54088;52.238;21.104;2022-11-20T05:56:07;-4.20;90.90
67161;DHT22;54088;52.238;21.104;2022-11-20T05:58:36;-4.20;90.90
67161;DHT22;54088;52.238;21.104;2022-11-20T06:01:14;-4.20;90.90
67161;DHT22;54088;52.238;21.104;2022-11-20T06:03:41;-4.20;90.90
67161;DHT22;54088;52.238;21.104;2022-11-20T06:06:08;-4.20;90.90
67161;DHT22;54088;52.238;21.104;2022-11-20T06:08:34;-4.20;90.90
67161;DHT22;54088;52.238;21.104;2022-11-20T06:11:07;-4.20;90.90
67161;DHT22;54088;52.238;21.104;2022-11-20T06:13:34;-4.20;90.80
67161;DHT22;54088;52.238;21.104;2022-11-20T06:16:00;-4.20;90.90
67161;DHT22;54088;52.238;21.104;2022-11-20T06:18:27;-4.20;90.90
67161;DHT22;54088;52.238;21.104;2022-11-20T06:21:08;-4.20;90.80
67161;DHT22;54088;52.238;21.104;2022-11-20T06:23:35;-4.20;90.80
67161;DHT22;54088;52.238;21.104;2022-11-20T06:26:02;-4.10;90.80
67161;DHT22;54088;52.238;21.104;2022-11-20T06:28:29;-4.10;90.80
67161;DHT22;54088;52.238;21.104;2022-11-20T06:30:54;-4.10;90.70
67161;DHT22;54088;52.238;21.104;2022-11-20T06:33:20;-4.10;90.70
67161;DHT22;54088;52.238;21.104;2022-11-20T06:35:45;-4.00;90.60
67161;DHT22;54088;52.238;21.104;2022-11-20T06:38:11;-4.10;90.50
67161;DHT22;54088;52.238;21.104;2022-11-20T06:40:40;-4.00;90.50
67161;DHT22;54088;52.238;21.104;2022-11-20T06:43:06;-4.10;90.40
67161;DHT22;54088;52.238;21.104;2022-11-20T06:45:31;-4.00;90.40
67161;DHT22;54088;52.238;21.104;2022-11-20T06:47:57;-4.00;90.30
67161;DHT22;54088;52.238;21.104;2022-11-20T06:50:23;-4.00;90.30
67161;DHT22;54088;52.238;21.104;2022-11-20T06:52:49;-4.00;90.30
67161;DHT22;54088;52.238;21.104;2022-11-20T06:55:15;-4.00;90.20
67161;DHT22;54088;52.238;21.104;2022-11-20T06:57:40;-4.00;90.10
67161;DHT22;54088;52.238;21.104;2022-11-20T07:00:06;-4.00;90.00
67161;DHT22;54088;52.238;21.104;2022-11-20T07:02:32;-3.90;90.10
67161;DHT22;54088;52.238;21.104;2022-11-20T07:04:58;-3.90;90.00
67161;DHT22;54088;52.238;21.104;2022-11-20T07:07:23;-3.90;89.70
67161;DHT22;54088;52.238;21.104;2022-11-20T07:09:49;-3.80;89.70
67161;DHT22;54088;52.238;21.104;2022-11-20T07:12:15;-3.80;89.40
67161;DHT22;54088;52.238;21.104;2022-11-20T07:14:40;-3.80;89.20
67161;DHT22;54088;52.238;21.104;2022-11-20T07:17:06;-3.70;89.10
67161;DHT22;54088;52.238;21.104;2022-11-20T07:19:32;-3.70;88.60
67161;DHT22;54088;52.238;21.104;2022-11-20T07:21:57;-3.70;88.90
67161;DHT22;54088;52.238;21.104;2022-11-20T07:24:23;-3.70;88.90
67161;DHT22;54088;52.238;21.104;2022-11-20T07:26:49;-3.70;88.70
67161;DHT22;54088;52.238;21.104;2022-11-20T07:29:15;-3.60;88.70
67161;DHT22;54088;52.238;21.104;2022-11-20T07:31:42;-3.50;88.70
67161;DHT22;54088;52.238;21.104;2022-11-20T07:34:08;-3.40;88.50
67161;DHT22;54088;52.238;21.104;2022-11-20T07:36:34;-3.30;88.70
67161;DHT22;54088;52.238;21.104;2022-11-20T07:39:00;-3.20;88.40
67161;DHT22;54088;52.238;21.104;2022-11-20T07:41:25;-3.10;88.20
67161;DHT22;54088;52.238;21.104;2022-11-20T07:43:51;-3.00;87.80
67161;DHT22;54088;52.238;21.104;2022-11-20T07:46:17;-2.80;87.70
67161;DHT22;54088;52.238;21.104;2022-11-20T07:48:42;-2.60;87.00
67161;DHT22;54088;52.238;21.104;2022-11-20T07:51:08;-2.50;86.80
67161;DHT22;54088;52.238;21.104;2022-11-20T07:53:34;-2.40;86.40
67161;DHT22;54088;52.238;21.104;2022-11-20T07:56:00;-2.20;86.30
67161;DHT22;54088;52.238;21.104;2022-11-20T07:58:29;-2.00;85.70
67161;DHT22;54088;52.238;21.104;2022-11-20T08:00:55;-1.80;85.20
67161;DHT22;54088;52.238;21.104;2022-11-20T08:03:21;-1.70;84.60
67161;DHT22;54088;52.238;21.104;2022-11-20T08:05:46;-1.50;84.00
67161;DHT22;54088;52.238;21.104;2022-11-20T08:08:12;-1.30;83.10
67161;DHT22;54088;52.238;21.104;2022-11-20T08:10:38;-1.10;82.60
67161;DHT22;54088;52.238;21.104;2022-11-20T08:13:03;-0.90;81.80
67161;DHT22;54088;52.238;21.104;2022-11-20T08:15:49;-0.70;81.40
67161;DHT22;54088;52.238;21.104;2022-11-20T08:18:16;-0.60;80.60
67161;DHT22;54088;52.238;21.104;2022-11-20T08:20:43;-0.40;80.10
67161;DHT22;54088;52.238;21.104;2022-11-20T08:23:08;-0.30;79.60
67161;DHT22;54088;52.238;21.104;2022-11-20T08:25:36;-0.20;78.70
67161;DHT22;54088;52.238;21.104;2022-11-20T08:28:04;-0.10;78.60
67161;DHT22;54088;52.238;21.104;2022-11-20T08:30:31;-0.10;78.50
67161;DHT22;54088;52.238;21.104;2022-11-20T08:33:02;0.10;78.60
67161;DHT22;54088;52.238;21.104;2022-11-20T08:35:28;0.30;78.10
67161;DHT22;54088;52.238;21.104;2022-11-20T08:37:57;0.60;77.40
67161;DHT22;54088;52.238;21.104;2022-11-20T08:40:23;0.70;76.70
67161;DHT22;54088;52.238;21.104;2022-11-20T08:42:49;1.00;75.90
67161;DHT22;54088;52.238;21.104;2022-11-20T08:45:16;1.30;75.10
67161;DHT22;54088;52.238;21.104;2022-11-20T08:47:43;1.40;74.00
67161;DHT22;54088;52.238;21.104;2022-11-20T08:50:10;1.50;73.50
67161;DHT22;54088;52.238;21.104;2022-11-20T08:52:36;1.60;73.20
67161;DHT22;54088;52.238;21.104;2022-11-20T08:55:02;1.80;73.00
67161;DHT22;54088;52.238;21.104;2022-11-20T08:57:28;1.80;72.60
67161;DHT22;54088;52.238;21.104;2022-11-20T08:59:53;1.80;72.60
67161;DHT22;54088;52.238;21.104;2022-11-20T09:02:20;1.70;72.20
67161;DHT22;54088;52.238;21.104;2022-11-20T09:04:45;1.50;71.80
67161;DHT22;54088;52.238;21.104;2022-11-20T09:07:11;1.30;72.60
67161;DHT22;54088;52.238;21.104;2022-11-20T09:09:37;1.30;72.90
67161;DHT22;54088;52.238;21.104;2022-11-20T09:12:03;1.20;73.40
67161;DHT22;54088;52.238;21.104;2022-11-20T09:14:28;1.30;74.10
67161;DHT22;54088;52.238;21.104;2022-11-20T09:16:56;1.40;73.80
67161;DHT22;54088;52.238;21.104;2022-11-20T09:19:23;1.30;73.30
67161;DHT22;54088;52.238;21.104;2022-11-20T09:21:48;1.40;74.10
67161;DHT22;54088;52.238;21.104;2022-11-20T09:24:14;1.30;73.50
67161;DHT22;54088;52.238;21.104;2022-11-20T09:26:40;1.20;74.10
67161;DHT22;54088;52.238;21.104;2022-11-20T09:29:05;1.40;75.10
67161;DHT22;54088;52.238;21.104;2022-11-20T09:31:31;1.90;74.10
67161;DHT22;54088;52.238;21.104;2022-11-20T09:33:56;2.40;72.70
67161;DHT22;54088;52.238;21.104;2022-11-20T09:36:22;2.60;71.10
67161;DHT22;54088;52.238;21.104;2022-11-20T09:38:48;2.60;70.70
67161;DHT22;54088;52.238;21.104;2022-11-20T09:44:54;2.40;71.10
67161;DHT22;54088;52.238;21.104;2022-11-20T09:53:01;2.30;71.60
67161;DHT22;54088;52.238;21.104;2022-11-20T09:55:29;2.20;72.20
67161;DHT22;54088;52.238;21.104;2022-11-20T09:57:57;2.30;72.70
67161;DHT22;54088;52.238;21.104;2022-11-20T10:00:24;2.30;72.50
67161;DHT22;54088;52.238;21.104;2022-11-20T10:03:22;2.30;72.60
67161;DHT22;54088;52.238;21.104;2022-11-20T10:05:54;2.30;72.30
67161;DHT22;54088;52.238;21.104;2022-11-20T10:08:28;2.30;72.70
67161;DHT22;54088;52.238;21.104;2022-11-20T10:14:00;2.20;73.30
67161;DHT22;54088;52.238;21.104;2022-11-20T10:25:22;2.20;73.80
67161;DHT22;54088;52.238;21.104;2022-11-20T10:27:59;2.30;74.00
67161;DHT22;54088;52.238;21.104;2022-11-20T10:30:30;2.40;74.00
67161;DHT22;54088;52.238;21.104;2022-11-20T10:33:06;2.40;74.20
67161;DHT22;54088;52.238;21.104;2022-11-20T10:38:38;2.40;73.50
67161;DHT22;54088;52.238;21.104;2022-11-20T10:41:06;2.50;73.80
67161;DHT22;54088;52.238;21.104;2022-11-20T10:46:24;2.50;73.60
67161;DHT22;54088;52.238;21.104;2022-11-20T10:48:51;2.50;73.80
67161;DHT22;54088;52.238;21.104;2022-11-20T11:01:56;2.30;74.10
67161;DHT22;54088;52.238;21.104;2022-11-20T11:07:19;2.20;74.30
67161;DHT22;54088;52.238;21.104;2022-11-20T11:09:52;2.10;74.90
67161;DHT22;54088;52.238;21.104;2022-11-20T11:12:19;2.10;75.20
67161;DHT22;54088;52.238;21.104;2022-11-20T11:14:53;2.10;75.20
67161;DHT22;54088;52.238;21.104;2022-11-20T11:20:22;2.20;75.20
67161;DHT22;54088;52.238;21.104;2022-11-20T11:22:57;2.10;75.30
67161;DHT22;54088;52.238;21.104;2022-11-20T11:25:33;2.20;75.50
67161;DHT22;54088;52.238;21.104;2022-11-20T11:28:03;2.10;75.60
67161;DHT22;54088;52.238;21.104;2022-11-20T11:30:30;2.10;75.70
67161;DHT22;54088;52.238;21.104;2022-11-20T11:33:08;2.10;75.70
67161;DHT22;54088;52.238;21.104;2022-11-20T11:35:49;2.00;76.00
67161;DHT22;54088;52.238;21.104;2022-11-20T11:40:49;2.00;76.20
67161;DHT22;54088;52.238;21.104;2022-11-20T11:43:20;1.90;76.10
67161;DHT22;54088;52.238;21.104;2022-11-20T11:49:16;1.70;76.80
67161;DHT22;54088;52.238;21.104;2022-11-20T11:56:53;1.80;77.00
67161;DHT22;54088;52.238;21.104;2022-11-20T12:02:32;1.80;77.00
67161;DHT22;54088;52.238;21.104;2022-11-20T12:08:00;1.70;77.30
67161;DHT22;54088;52.238;21.104;2022-11-20T12:11:15;1.70;77.40
67161;DHT22;54088;52.238;21.104;2022-11-20T12:16:37;1.50;78.40
67161;DHT22;54088;52.238;21.104;2022-11-20T12:19:09;1.50;78.60
67161;DHT22;54088;52.238;21.104;2022-11-20T12:30:12;1.40;79.00
67161;DHT22;54088;52.238;21.104;2022-11-20T12:38:51;1.40;79.10
67161;DHT22;54088;52.238;21.104;2022-11-20T12:53:08;1.40;79.60
67161;DHT22;54088;52.238;21.104;2022-11-20T12:58:27;1.30;80.10
67161;DHT22;54088;52.238;21.104;2022-11-20T13:06:34;1.30;80.20
67161;DHT22;54088;52.238;21.104;2022-11-20T13:09:02;1.40;80.20
67161;DHT22;54088;52.238;21.104;2022-11-20T13:11:37;1.30;80.10
67161;DHT22;54088;52.238;21.104;2022-11-20T13:14:09;1.30;80.30
67161;DHT22;54088;52.238;21.104;2022-11-20T13:17:04;1.30;80.60
67161;DHT22;54088;52.238;21.104;2022-11-20T13:19:31;1.30;80.70
67161;DHT22;54088;52.238;21.104;2022-11-20T13:21:57;1.30;80.70
67161;DHT22;54088;52.238;21.104;2022-11-20T13:24:26;1.30;80.70
67161;DHT22;54088;52.238;21.104;2022-11-20T13:29:37;1.40;80.50
67161;DHT22;54088;52.238;21.104;2022-11-20T13:32:04;1.30;80.50
67161;DHT22;54088;52.238;21.104;2022-11-20T13:34:30;1.20;80.90
67161;DHT22;54088;52.238;21.104;2022-11-20T13:36:58;1.30;81.10
67161;DHT22;54088;52.238;21.104;2022-11-20T13:39:34;1.30;81.00
67161;DHT22;54088;52.238;21.104;2022-11-20T13:44:46;1.20;81.10
67161;DHT22;54088;52.238;21.104;2022-11-20T13:47:47;1.20;81.30
67161;DHT22;54088;52.238;21.104;2022-11-20T13:50:14;1.20;81.40
67161;DHT22;54088;52.238;21.104;2022-11-20T13:55:38;1.20;81.40
67161;DHT22;54088;52.238;21.104;2022-11-20T14:01:29;1.20;81.50
67161;DHT22;54088;52.238;21.104;2022-11-20T14:03:57;1.10;81.50
67161;DHT22;54088;52.238;21.104;2022-11-20T14:06:31;1.00;81.80
67161;DHT22;54088;52.238;21.104;2022-11-20T14:08:58;1.00;82.30
67161;DHT22;54088;52.238;21.104;2022-11-20T14:11:33;1.00;82.40
67161;DHT22;54088;52.238;21.104;2022-11-20T14:14:17;0.90;82.60
67161;DHT22;54088;52.238;21.104;2022-11-20T14:16:45;0.80;82.90
67161;DHT22;54088;52.238;21.104;2022-11-20T14:19:26;0.80;83.00
67161;DHT22;54088;52.238;21.104;2022-11-20T14:22:16;0.80;83.10
67161;DHT22;54088;52.238;21.104;2022-11-20T14:24:43;0.80;83.30
67161;DHT22;54088;52.238;21.104;2022-11-20T14:27:20;0.80;83.20
67161;DHT22;54088;52.238;21.104;2022-11-20T14:29:48;0.70;83.30
67161;DHT22;54088;52.238;21.104;2022-11-20T14:32:19;0.70;83.40
67161;DHT22;54088;52.238;21.104;2022-11-20T14:34:48;0.70;83.60
67161;DHT22;54088;52.238;21.104;2022-11-20T14:37:24;0.70;83.80
67161;DHT22;54088;52.238;21.104;2022-11-20T14:39:53;0.70;83.90
67161;DHT22;54088;52.238;21.104;2022-11-20T14:42:25;0.60;84.00
67161;DHT22;54088;52.238;21.104;2022-11-20T14:44:55;0.60;84.00
67161;DHT22;54088;52.238;21.104;2022-11-20T14:47:27;0.60;84.10
67161;DHT22;54088;52.238;21.104;2022-11-20T14:49:55;0.60;84.20
67161;DHT22;54088;52.238;21.104;2022-11-20T14:52:25;0.60;84.30
67161;DHT22;54088;52.238;21.104;2022-11-20T14:57:29;0.50;84.60
67161;DHT22;54088;52.238;21.104;2022-11-20T15:02:49;0.60;84.80
67161;DHT22;54088;52.238;21.104;2022-11-20T15:05:17;0.50;84.80
67161;DHT22;54088;52.238;21.104;2022-11-20T15:07:46;0.60;85.00
67161;DHT22;54088;52.238;21.104;2022-11-20T15:18:15;0.50;85.50
67161;DHT22;54088;52.238;21.104;2022-11-20T15:20:42;0.40;85.70
67161;DHT22;54088;52.238;21.104;2022-11-20T15:23:13;0.40;85.80
67161;DHT22;54088;52.238;21.104;2022-11-20T15:25:40;0.40;86.10
67161;DHT22;54088;52.238;21.104;2022-11-20T15:28:21;0.30;86.30
67161;DHT22;54088;52.238;21.104;2022-11-20T15:30:49;0.30;86.60
67161;DHT22;54088;52.238;21.104;2022-11-20T15:33:16;0.30;86.80
67161;DHT22;54088;52.238;21.104;2022-11-20T15:35:42;0.30;86.90
67161;DHT22;54088;52.238;21.104;2022-11-20T15:38:09;0.20;87.10
67161;DHT22;54088;52.238;21.104;2022-11-20T15:40:34;0.20;87.20
67161;DHT22;54088;52.238;21.104;2022-11-20T15:43:00;0.20;87.10
67161;DHT22;54088;52.238;21.104;2022-11-20T15:48:03;0.20;87.10
67161;DHT22;54088;52.238;21.104;2022-11-20T15:53:21;0.10;87.10
67161;DHT22;54088;52.238;21.104;2022-11-20T15:55:47;0.00;87.30
67161;DHT22;54088;52.238;21.104;2022-11-20T15:58:13;0.00;87.60
67161;DHT22;54088;52.238;21.104;2022-11-20T16:00:38;0.00;87.80
67161;DHT22;54088;52.238;21.104;2022-11-20T16:03:04;0.00;87.90
67161;DHT22;54088;52.238;21.104;2022-11-20T16:05:30;0.00;87.70
67161;DHT22;54088;52.238;21.104;2022-11-20T16:07:56;-0.10;87.80
67161;DHT22;54088;52.238;21.104;2022-11-20T16:10:23;-0.10;87.90
67161;DHT22;54088;52.238;21.104;2022-11-20T16:12:49;-0.10;88.10
67161;DHT22;54088;52.238;21.104;2022-11-20T16:15:33;-0.10;88.20
67161;DHT22;54088;52.238;21.104;2022-11-20T16:18:14;-0.10;88.20
67161;DHT22;54088;52.238;21.104;2022-11-20T16:20:40;-0.10;88.10
67161;DHT22;54088;52.238;21.104;2022-11-20T16:23:06;-0.10;88.10
67161;DHT22;54088;52.238;21.104;2022-11-20T16:25:32;-0.10;88.10
67161;DHT22;54088;52.238;21.104;2022-11-20T16:27:58;-0.20;88.20
67161;DHT22;54088;52.238;21.104;2022-11-20T16:30:24;-0.20;88.50
67161;DHT22;54088;52.238;21.104;2022-11-20T16:32:50;-0.20;88.70
67161;DHT22;54088;52.238;21.104;2022-11-20T16:35:16;-0.20;89.40
67161;DHT22;54088;52.238;21.104;2022-11-20T16:37:41;-0.20;88.80
67161;DHT22;54088;52.238;21.104;2022-11-20T16:40:09;-0.20;88.80
67161;DHT22;54088;52.238;21.104;2022-11-20T16:42:36;-0.20;89.00
67161;DHT22;54088;52.238;21.104;2022-11-20T16:45:03;-0.20;89.10
67161;DHT22;54088;52.238;21.104;2022-11-20T16:47:36;-0.20;89.20
67161;DHT22;54088;52.238;21.104;2022-11-20T16:50:03;-0.10;89.20
67161;DHT22;54088;52.238;21.104;2022-11-20T16:52:29;-0.10;89.20
67161;DHT22;54088;52.238;21.104;2022-11-20T16:54:55;-0.10;89.20
67161;DHT22;54088;52.238;21.104;2022-11-20T16:57:21;-0.10;89.00
67161;DHT22;54088;52.238;21.104;2022-11-20T16:59:47;-0.10;88.80
67161;DHT22;54088;52.238;21.104;2022-11-20T17:02:13;-0.10;89.10
67161;DHT22;54088;52.238;21.104;2022-11-20T17:04:39;-0.10;89.10
67161;DHT22;54088;52.238;21.104;2022-11-20T17:07:06;-0.10;89.00
67161;DHT22;54088;52.238;21.104;2022-11-20T17:09:32;-0.10;89.10
67161;DHT22;54088;52.238;21.104;2022-11-20T17:11:57;-0.10;89.20
67161;DHT22;54088;52.238;21.104;2022-11-20T17:14:23;-0.10;89.20
67161;DHT22;54088;52.238;21.104;2022-11-20T17:16:49;-0.10;89.20
67161;DHT22;54088;52.238;21.104;2022-11-20T17:19:14;-0.10;89.10
67161;DHT22;54088;52.238;21.104;2022-11-20T17:21:40;-0.10;89.10
67161;DHT22;54088;52.238;21.104;2022-11-20T17:24:09;-0.10;89.10
67161;DHT22;54088;52.238;21.104;2022-11-20T17:26:36;-0.20;89.00
67161;DHT22;54088;52.238;21.104;2022-11-20T17:29:04;-0.20;88.90
67161;DHT22;54088;52.238;21.104;2022-11-20T17:31:32;-0.10;89.30
67161;DHT22;54088;52.238;21.104;2022-11-20T17:33:59;-0.10;89.00
67161;DHT22;54088;52.238;21.104;2022-11-20T17:36:25;-0.30;88.80
67161;DHT22;54088;52.238;21.104;2022-11-20T17:38:51;-0.40;89.20